Hauptseite
METAR-TAF:

METAR-TAF

Flughäfen :

Tunis, Tunesien

Flughafen Tunis

Breite: 36-50N, Länge: 010-14E, Höhe: 3 m

Beobachtung

Neuester Wetterbericht von vor 1 Stunde und 11 Minuten, um 11:00 UTC
Wind 6 kt aus Ost, variierte zwischen Nordost und Süd/Südost
Temperatur 31°C
Luftfeuchtigkeit 43%
Luftdruck 1017 hPa
Sichtweite 10 km oder mehr
keine Wolken unter 1500 m und keine Kumulonimbus oder Gewitterwolken

METAR: DTTA 221100Z 09006KT 050V150 CAVOK 31/17 Q1017 NOSIG

Zeit: 13:11 (12:11 UTC)

Prognose

Neuester Wetterbericht von vor 1 Stunde und 11 Minuten, um 11:00 UTC
Gültige Prognose vom 22 um 12 UTC bis 23 um 12 UTC
Wind 8 kt aus Ost/Nordost
Sichtweite 10 km oder mehr
keine Wolken unter 1500 m und keine Kumulonimbus oder Gewitterwolken
Übergehend zu
vom 22 um 21 UTC bis 22 um 23 UTC
Wind 5 kt aus Nord

TAF: DTTA 221100Z 2212/2312 06008KT CAVOK BECMG 2221/2223 35005KT

Wetterbeobachtungen und Prognosen von mehr als 4000 Flughäfen (METAR und TAF Bericht).

Die verfügbaren Stationen werden durch gelbe und rote Markierungen auf der Karte dargestellt.

Führen Sie die Maus auf sie, um den Namen der Station zu sehen.

Darauf klicken, um die Beobachtung von Wetterbeobachtungen und Prognosen zu sehen.

Um die Karte zu ändern : klicken Sie auf den grünen Tasten mit einem schwarzen Kreuz Zum Vergrößern, auf den grünen Button mit einem Gedankenstrich zu verkleinern, oder auf die grünen Pfeile für benachbarte Karten.


METAR-TAF: